createdAt,value
2023-04-23T00:03:09.637Z,100532.22
2023-04-23T00:08:16.270Z,100530.89
2023-04-23T00:13:20.398Z,100524.30
2023-04-23T00:18:24.694Z,100516.48
2023-04-23T00:23:29.071Z,100513.41
2023-04-23T00:28:32.690Z,100509.71
2023-04-23T00:33:38.100Z,100505.44
2023-04-23T00:38:41.971Z,100499.82
2023-04-23T00:43:46.201Z,100492.08
2023-04-23T00:48:50.739Z,100484.88
2023-04-23T00:53:54.462Z,100479.48
2023-04-23T00:58:58.207Z,100475.67
2023-04-23T01:04:02.197Z,100478.13
2023-04-23T01:09:06.236Z,100473.19
2023-04-23T01:14:10.643Z,100469.30
2023-04-23T01:19:15.523Z,100466.44
2023-04-23T01:24:19.206Z,100465.88
2023-04-23T01:29:22.908Z,100458.13
2023-04-23T01:34:30.275Z,100453.71
2023-04-23T01:39:33.948Z,100449.68
2023-04-23T01:44:37.726Z,100450.58
2023-04-23T01:49:41.677Z,100448.80
2023-04-23T01:54:45.475Z,100441.77
2023-04-23T01:59:49.187Z,100445.83
2023-04-23T02:04:53.848Z,100439.90
2023-04-23T02:09:57.493Z,100435.10
2023-04-23T02:15:01.236Z,100430.63
2023-04-23T02:20:07.325Z,100425.88
2023-04-23T02:25:11.613Z,100423.82
2023-04-23T02:30:15.886Z,100420.98
2023-04-23T02:35:20.659Z,100415.91
2023-04-23T02:40:24.751Z,100419.69
2023-04-23T02:45:28.407Z,100418.91
2023-04-23T02:50:32.154Z,100418.11
2023-04-23T02:55:36.407Z,100416.11
2023-04-23T03:00:40.095Z,100411.27
2023-04-23T03:05:44.004Z,100407.67
2023-04-23T03:10:47.683Z,100407.27
2023-04-23T03:15:52.624Z,100407.33
2023-04-23T03:20:56.561Z,100405.20
2023-04-23T03:26:00.490Z,100408.79
2023-04-23T03:31:04.365Z,100399.69
2023-04-23T03:36:08.665Z,100395.83
2023-04-23T03:41:12.469Z,100390.17
2023-04-23T03:46:16.257Z,100391.22
2023-04-23T03:51:20.220Z,100387.51
2023-04-23T03:56:27.137Z,100384.27
2023-04-23T04:01:51.397Z,100381.56
2023-04-23T04:06:55.092Z,100384.41
2023-04-23T04:12:03.593Z,100381.94
2023-04-23T04:17:07.683Z,100382.98
2023-04-23T04:22:11.479Z,100388.82
2023-04-23T04:27:16.249Z,100382.88
2023-04-23T04:32:21.605Z,100379.36
2023-04-23T04:37:25.856Z,100383.31
2023-04-23T04:42:29.507Z,100374.75
2023-04-23T04:47:33.209Z,100369.62
2023-04-23T04:52:37.332Z,100367.77
2023-04-23T04:57:40.923Z,100366.58
2023-04-23T05:02:44.628Z,100361.66
2023-04-23T05:07:48.382Z,100360.95
2023-04-23T05:12:52.122Z,100364.63
2023-04-23T05:17:56.089Z,100360.91
2023-04-23T05:23:01.719Z,100364.73
2023-04-23T05:28:07.686Z,100368.46
2023-04-23T05:33:12.027Z,100360.77
2023-04-23T05:38:15.575Z,100362.06
2023-04-23T05:43:19.132Z,100365.45
2023-04-23T05:48:22.704Z,100364.30
2023-04-23T05:53:26.644Z,100361.86
2023-04-23T05:58:30.203Z,100361.20
2023-04-23T06:03:34.362Z,100359.06
2023-04-23T06:08:39.070Z,100353.50
2023-04-23T06:13:43.811Z,100351.71
2023-04-23T06:18:47.657Z,100346.56
2023-04-23T06:23:51.373Z,100346.42
2023-04-23T06:28:54.987Z,100345.14
2023-04-23T06:34:18.962Z,100341.97
2023-04-23T06:39:22.617Z,100334.58
2023-04-23T06:44:26.433Z,100335.10
2023-04-23T06:49:29.986Z,100331.47
2023-04-23T06:54:33.609Z,100330.19
2023-04-23T06:59:37.302Z,100330.14
2023-04-23T07:04:41.521Z,100324.03
2023-04-23T07:09:45.701Z,100319.42
2023-04-23T07:14:49.402Z,100320.12
2023-04-23T07:19:53.048Z,100316.09
2023-04-23T07:24:56.767Z,100311.84
2023-04-23T07:30:01.482Z,100308.81
2023-04-23T07:35:06.620Z,100303.52
2023-04-23T07:40:11.416Z,100298.65
2023-04-23T07:45:15.411Z,100301.06
2023-04-23T07:50:19.150Z,100290.46
2023-04-23T07:55:22.956Z,100284.41
2023-04-23T08:00:26.733Z,100284.98
2023-04-23T08:05:30.537Z,100281.77
2023-04-23T08:10:34.453Z,100274.02
2023-04-23T08:15:38.168Z,100266.17
2023-04-23T08:20:42.346Z,100271.37
2023-04-23T08:25:49.165Z,100265.89
2023-04-23T08:30:52.721Z,100265.96
2023-04-23T08:35:56.392Z,100263.86
2023-04-23T08:41:02.393Z,100262.85
2023-04-23T08:46:07.419Z,100261.10
2023-04-23T08:51:13.226Z,100256.09
2023-04-23T08:56:17.078Z,100259.70
2023-04-23T09:01:20.895Z,100243.37
2023-04-23T09:06:25.937Z,100246.25
2023-04-23T09:11:31.330Z,100240.46
2023-04-23T09:16:55.150Z,100234.05
2023-04-23T09:22:01.596Z,100226.80
2023-04-23T09:27:05.466Z,100231.03
2023-04-23T09:32:10.015Z,100219.73
2023-04-23T09:37:15.499Z,100216.28
2023-04-23T09:42:23.087Z,100223.02
2023-04-23T09:47:26.823Z,100222.68
2023-04-23T09:52:33.714Z,100209.36
2023-04-23T09:57:37.846Z,100201.88
2023-04-23T10:02:47.724Z,100204.41
2023-04-23T10:07:51.545Z,100188.64
2023-04-23T10:12:56.612Z,100179.82
2023-04-23T10:18:00.283Z,100177.69
2023-04-23T10:23:05.208Z,100169.80
2023-04-23T10:28:11.662Z,100176.48
2023-04-23T10:33:29.031Z,100170.56
2023-04-23T10:38:34.468Z,100165.90
2023-04-23T10:43:38.192Z,100157.93
2023-04-23T10:49:07.446Z,100143.57
2023-04-23T10:54:13.790Z,100153.38
2023-04-23T10:59:20.924Z,100131.30
2023-04-23T11:04:25.952Z,100139.55
2023-04-23T11:09:37.829Z,100139.56
2023-04-23T11:14:48.042Z,100135.55
2023-04-23T11:20:10.227Z,100124.86
2023-04-23T11:25:19.183Z,100117.63
2023-04-23T11:30:24.275Z,100117.02
2023-04-23T11:35:29.687Z,100118.66
2023-04-23T11:40:36.722Z,100107.41
2023-04-23T11:45:40.319Z,100106.39
2023-04-23T11:50:44.045Z,100099.80
2023-04-23T11:55:50.451Z,100097.70
2023-04-23T12:01:00.095Z,100094.77
2023-04-23T12:06:03.862Z,100086.69
2023-04-23T12:11:07.543Z,100088.58
2023-04-23T12:16:11.358Z,100078.82
2023-04-23T12:21:17.029Z,100074.56
2023-04-23T12:26:20.781Z,100071.10
2023-04-23T12:31:26.047Z,100066.67
2023-04-23T12:36:30.871Z,100059.88
2023-04-23T12:41:34.517Z,100059.16
2023-04-23T12:46:38.162Z,100058.60
2023-04-23T12:51:41.790Z,100057.73
2023-04-23T12:56:45.737Z,100060.55
2023-04-23T13:01:50.281Z,100046.24
2023-04-23T13:06:54.343Z,100037.16
2023-04-23T13:11:59.395Z,100046.10
2023-04-23T13:17:02.999Z,100034.70
2023-04-23T14:06:56.728Z,99995.92
2023-04-23T14:12:03.789Z,99996.04
2023-04-23T14:17:10.873Z,99993.27
2023-04-23T14:22:18.006Z,99993.20
2023-04-23T14:27:25.223Z,99999.26
2023-04-23T14:32:32.379Z,99997.30
2023-04-23T14:37:43.238Z,99999.72
2023-04-23T14:42:50.569Z,100005.55
2023-04-23T14:47:56.081Z,100015.54
2023-04-23T14:53:07.221Z,100018.70
2023-04-23T14:58:14.254Z,100025.29
2023-04-23T15:03:21.504Z,100029.05
2023-04-23T15:08:27.311Z,100038.91
2023-04-23T15:13:51.702Z,100042.04
2023-04-23T15:19:00.115Z,100045.17
2023-04-23T15:24:08.020Z,100052.40
2023-04-23T15:29:15.552Z,100052.23
2023-04-23T15:34:22.655Z,100054.50
2023-04-23T15:39:30.248Z,100059.86
2023-04-23T15:44:37.291Z,100063.81
2023-04-23T15:49:44.560Z,100061.08
2023-04-23T15:54:51.627Z,100063.44
2023-04-23T15:59:58.758Z,100064.39
2023-04-23T16:05:06.292Z,100064.38
2023-04-23T16:10:12.596Z,100066.98
2023-04-23T16:15:19.588Z,100065.89
2023-04-23T16:20:29.127Z,100059.21
2023-04-23T16:25:36.996Z,100051.64
2023-04-23T16:30:44.235Z,100049.51
2023-04-23T16:35:51.680Z,100053.64
2023-04-23T16:40:57.339Z,100049.50
2023-04-23T16:46:04.609Z,100047.62
2023-04-23T16:51:11.931Z,100042.88
2023-04-23T16:56:19.414Z,100037.21
2023-04-23T17:01:27.179Z,100033.44
2023-04-23T17:06:33.170Z,100028.13
2023-04-23T17:11:40.383Z,100031.24
2023-04-23T17:16:47.681Z,100027.37
2023-04-23T17:21:54.765Z,100028.10
2023-04-23T17:27:02.868Z,100029.73
2023-04-23T17:32:10.544Z,100031.66
2023-04-23T17:37:16.037Z,100025.83
2023-04-23T17:42:23.149Z,100024.56
2023-04-23T17:47:30.188Z,100027.64
2023-04-23T17:52:37.347Z,100025.50
2023-04-23T17:57:44.332Z,100024.01
2023-04-23T18:02:51.626Z,100031.14
2023-04-23T18:07:58.878Z,100039.02
2023-04-23T18:13:09.257Z,100046.17
2023-04-23T18:18:16.292Z,100049.27
2023-04-23T18:23:25.407Z,100053.44
2023-04-23T18:28:32.990Z,100055.83
2023-04-23T18:33:50.053Z,100059.84
2023-04-23T18:38:57.158Z,100060.61
2023-04-23T18:44:04.601Z,100059.27
2023-04-23T18:49:47.877Z,100057.70
2023-04-23T18:54:57.132Z,100054.30
2023-04-23T19:00:04.699Z,100059.52
2023-04-23T19:05:12.489Z,100065.97
2023-04-23T19:10:18.084Z,100068.70
2023-04-23T19:15:25.598Z,100063.54
2023-04-23T19:20:33.015Z,100064.81
2023-04-23T19:25:40.771Z,100066.37
2023-04-23T19:30:46.559Z,100060.05
2023-04-23T19:35:53.667Z,100058.83
2023-04-23T19:41:01.282Z,100051.29
2023-04-23T19:46:09.441Z,100038.55
2023-04-23T19:51:16.779Z,100036.09
2023-04-23T19:56:24.239Z,100025.23
2023-04-23T20:01:32.309Z,100018.54
2023-04-23T20:06:39.676Z,100026.39
2023-04-23T20:11:47.609Z,100032.73
2023-04-23T20:16:55.007Z,100032.16
2023-04-23T20:22:02.804Z,100031.29
2023-04-23T20:27:10.543Z,100036.27
2023-04-23T20:32:18.510Z,100036.11
2023-04-23T20:37:27.268Z,100032.91
2023-04-23T20:42:34.625Z,100032.90
2023-04-23T20:47:44.606Z,100034.58
2023-04-23T20:52:51.963Z,100033.04
2023-04-23T20:57:59.278Z,100031.23
2023-04-23T21:03:09.700Z,100025.72
2023-04-23T21:08:17.288Z,100023.83
2023-04-23T21:13:26.103Z,100022.50
2023-04-23T21:18:33.958Z,100018.77
2023-04-23T21:23:44.352Z,100019.23
2023-04-23T21:28:51.974Z,100015.33
2023-04-23T21:33:57.871Z,100010.65
2023-04-23T21:39:05.448Z,100007.39
2023-04-23T21:44:14.562Z,100004.36
2023-04-23T21:49:22.588Z,100000.14
2023-04-23T21:54:33.582Z,100000.58
2023-04-23T21:59:43.341Z,99995.83
2023-04-23T22:04:50.982Z,99987.45
2023-04-23T22:10:00.528Z,99989.19
2023-04-23T22:15:13.270Z,99990.68
2023-04-23T22:20:23.990Z,99994.52
2023-04-23T22:25:30.978Z,99994.83
2023-04-23T22:30:38.061Z,99997.02
2023-04-23T22:35:45.123Z,99988.17
2023-04-23T22:40:52.228Z,99982.18
2023-04-23T22:45:59.399Z,99976.45
2023-04-23T22:51:07.255Z,99972.34
2023-04-23T22:56:12.794Z,99969.93
2023-04-23T23:01:21.143Z,99968.45
2023-04-23T23:06:28.349Z,99963.05
2023-04-23T23:11:35.382Z,99958.58
2023-04-23T23:16:42.484Z,99958.42
2023-04-23T23:21:49.809Z,99959.09
2023-04-23T23:26:57.009Z,99956.16
2023-04-23T23:32:04.276Z,99955.00
2023-04-23T23:37:11.397Z,99948.79
2023-04-23T23:42:18.639Z,99950.71
2023-04-23T23:47:25.940Z,99944.58
2023-04-23T23:52:33.383Z,99939.89
2023-04-23T23:57:41.324Z,99943.34
